createdAt,value
2023-01-26T00:03:53.785Z,-0.34
2023-01-26T00:09:04.441Z,-0.29
2023-01-26T00:14:51.042Z,-0.24
2023-01-26T00:19:58.120Z,-0.28
2023-01-26T00:25:04.813Z,-0.33
2023-01-26T00:30:10.842Z,-0.31
2023-01-26T00:35:14.772Z,-0.31
2023-01-26T00:40:25.428Z,-0.28
2023-01-26T00:45:33.563Z,-0.23
2023-01-26T00:50:40.126Z,-0.22
2023-01-26T00:55:50.351Z,-0.18
2023-01-26T01:00:56.924Z,-0.15
2023-01-26T01:06:03.722Z,-0.11
2023-01-26T01:11:20.599Z,-0.15
2023-01-26T01:16:25.088Z,-0.14
2023-01-26T01:21:28.891Z,-0.10
2023-01-26T01:26:37.340Z,-0.14
2023-01-26T01:31:46.840Z,-0.14
2023-01-26T01:36:52.307Z,-0.16
2023-01-26T01:42:03.281Z,-0.09
2023-01-26T01:47:09.255Z,-0.13
2023-01-26T01:52:19.126Z,-0.02
2023-01-26T01:57:51.823Z,-0.02
2023-01-26T02:03:15.205Z,0.00
2023-01-26T02:08:33.378Z,0.01
2023-01-26T02:13:49.486Z,0.01
2023-01-26T02:18:53.479Z,-0.04
2023-01-26T02:24:08.541Z,-0.02
2023-01-26T02:29:16.289Z,0.01
2023-01-26T02:34:29.861Z,0.04
2023-01-26T02:39:47.509Z,0.05
2023-01-26T02:44:55.813Z,0.03
2023-01-26T02:50:01.012Z,0.06
2023-01-26T02:55:21.637Z,0.05
2023-01-26T03:00:31.088Z,0.12
2023-01-26T03:05:37.725Z,0.13
2023-01-26T03:10:41.827Z,0.12
2023-01-26T03:15:57.275Z,0.12
2023-01-26T03:21:28.371Z,0.16
2023-01-26T03:26:54.558Z,0.18
2023-01-26T03:32:07.758Z,0.23
2023-01-26T03:37:11.445Z,0.22
2023-01-26T03:42:44.326Z,0.17
2023-01-26T03:48:10.212Z,0.24
2023-01-26T03:53:42.536Z,0.20
2023-01-26T03:58:49.172Z,0.28
2023-01-26T04:04:16.444Z,0.34
2023-01-26T04:09:24.773Z,0.33
2023-01-26T04:14:50.605Z,0.35
2023-01-26T04:20:21.544Z,0.35
2023-01-26T04:25:36.084Z,0.39
2023-01-26T04:30:51.256Z,0.40
2023-01-26T04:36:15.221Z,0.49
2023-01-26T04:41:23.034Z,0.52
2023-01-26T04:46:49.040Z,0.54
2023-01-26T04:52:21.760Z,0.49
2023-01-26T04:57:27.031Z,0.53
2023-01-26T05:02:33.432Z,0.56
2023-01-26T05:07:44.070Z,0.57
2023-01-26T05:12:48.701Z,0.62
2023-01-26T05:18:17.505Z,0.68
2023-01-26T05:23:51.249Z,0.73
2023-01-26T05:29:04.375Z,0.71
2023-01-26T05:34:12.679Z,0.73
2023-01-26T05:39:17.981Z,0.76
2023-01-26T05:44:26.920Z,0.74
2023-01-26T05:49:49.643Z,0.77
2023-01-26T05:54:58.489Z,0.82
2023-01-26T06:00:05.255Z,0.86
2023-01-26T06:05:33.708Z,0.87
2023-01-26T06:10:48.234Z,0.83
2023-01-26T06:16:04.310Z,0.84
2023-01-26T06:21:26.508Z,0.88
2023-01-26T06:26:41.904Z,0.82
2023-01-26T06:31:48.945Z,0.92
2023-01-26T06:37:01.857Z,0.95
2023-01-26T06:42:16.510Z,0.97
2023-01-26T06:47:29.694Z,0.99
2023-01-26T06:52:41.429Z,1.04
2023-01-26T06:58:05.982Z,1.10
2023-01-26T07:03:32.592Z,1.12
2023-01-26T07:08:38.157Z,1.08
2023-01-26T07:13:56.113Z,1.07
2023-01-26T07:18:59.450Z,1.16
2023-01-26T07:24:04.478Z,1.17
2023-01-26T07:29:11.397Z,1.12
2023-01-26T07:34:17.569Z,1.02
2023-01-26T07:39:28.614Z,1.00
2023-01-26T07:44:41.918Z,1.02
2023-01-26T07:49:49.776Z,0.96
2023-01-26T07:54:54.805Z,0.94
2023-01-26T08:00:03.421Z,0.91
2023-01-26T08:05:17.068Z,0.94
2023-01-26T08:10:37.870Z,0.95
2023-01-26T08:16:09.556Z,0.96
2023-01-26T08:21:21.764Z,0.98
2023-01-26T08:26:30.687Z,1.02
2023-01-26T08:31:49.290Z,1.14
2023-01-26T08:37:05.063Z,1.28
2023-01-26T08:42:09.646Z,1.37
2023-01-26T08:47:26.684Z,1.42
2023-01-26T08:52:32.214Z,1.50
2023-01-26T08:57:57.199Z,1.57
2023-01-26T09:03:04.684Z,1.70
2023-01-26T09:08:17.247Z,1.80
2023-01-26T09:13:27.641Z,1.88
2023-01-26T09:18:41.117Z,1.96
2023-01-26T09:23:44.161Z,2.05
2023-01-26T09:29:08.388Z,2.17
2023-01-26T09:34:17.206Z,2.36
2023-01-26T09:39:21.767Z,2.65
2023-01-26T09:44:59.417Z,2.90
2023-01-26T09:50:28.595Z,3.09
2023-01-26T09:55:32.296Z,3.23
2023-01-26T10:00:47.500Z,3.25
2023-01-26T10:06:04.454Z,3.58
2023-01-26T10:11:59.291Z,3.77
2023-01-26T10:17:04.973Z,4.02
2023-01-26T10:22:18.069Z,4.32
2023-01-26T10:27:34.745Z,4.65
2023-01-26T10:32:40.023Z,4.91
2023-01-26T10:37:49.191Z,5.08
2023-01-26T10:43:02.700Z,5.27
2023-01-26T10:48:29.721Z,5.54
2023-01-26T10:53:43.710Z,5.75
2023-01-26T10:58:53.371Z,5.94
2023-01-26T11:04:06.164Z,6.04
2023-01-26T11:09:26.720Z,6.12
2023-01-26T11:14:36.273Z,6.28
2023-01-26T11:19:57.481Z,6.50
2023-01-26T11:25:20.681Z,6.40
2023-01-26T11:30:52.092Z,6.52
2023-01-26T11:36:07.865Z,6.32
2023-01-26T11:41:34.099Z,6.23
2023-01-26T11:46:55.598Z,6.39
2023-01-26T11:52:17.151Z,6.48
2023-01-26T11:57:46.456Z,6.75
2023-01-26T12:03:03.011Z,6.98
2023-01-26T12:08:29.824Z,7.12
2023-01-26T12:13:44.334Z,7.19
2023-01-26T12:19:10.170Z,7.28
2023-01-26T12:25:01.168Z,7.35
2023-01-26T12:30:26.247Z,7.39
2023-01-26T12:35:51.925Z,7.28
2023-01-26T12:41:12.083Z,7.26
2023-01-26T12:46:20.560Z,7.06
2023-01-26T12:51:32.889Z,7.32
2023-01-26T12:56:48.895Z,7.60
2023-01-26T13:02:19.046Z,7.39
2023-01-26T13:07:43.242Z,7.57
2023-01-26T13:12:49.885Z,7.79
2023-01-26T13:18:01.709Z,7.68
2023-01-26T13:23:47.704Z,7.51
2023-01-26T13:28:52.470Z,7.57
2023-01-26T13:34:14.762Z,7.44
2023-01-26T13:39:30.396Z,7.54
2023-01-26T13:44:46.818Z,7.40
2023-01-26T13:49:58.961Z,7.51
2023-01-26T13:55:25.196Z,7.68
2023-01-26T14:00:30.169Z,7.60
2023-01-26T14:05:41.739Z,7.45
2023-01-26T14:10:53.936Z,7.41
2023-01-26T14:16:01.798Z,7.39
2023-01-26T14:21:25.464Z,7.18
2023-01-26T14:26:43.471Z,7.17
2023-01-26T14:31:55.811Z,6.99
2023-01-26T14:37:18.047Z,6.95
2023-01-26T14:42:27.748Z,7.04
2023-01-26T14:47:47.335Z,7.22
2023-01-26T14:52:59.985Z,7.20
2023-01-26T14:58:07.159Z,7.16
2023-01-26T15:03:18.369Z,7.06
2023-01-26T15:08:26.497Z,7.07
2023-01-26T15:13:32.494Z,7.00
2023-01-26T15:18:39.883Z,6.88
2023-01-26T15:24:08.904Z,6.91
2023-01-26T15:29:28.015Z,6.89
2023-01-26T15:34:39.466Z,6.83
2023-01-26T15:39:54.232Z,6.76
2023-01-26T15:45:06.400Z,6.71
2023-01-26T15:50:28.250Z,6.61
2023-01-26T15:55:41.235Z,6.64
2023-01-26T16:00:49.393Z,6.52
2023-01-26T16:06:34.041Z,6.53
2023-01-26T16:11:51.821Z,6.41
2023-01-26T16:16:57.401Z,6.41
2023-01-26T16:22:00.523Z,6.32
2023-01-26T16:27:08.098Z,6.34
2023-01-26T16:32:26.578Z,6.30
2023-01-26T16:37:37.226Z,6.04
2023-01-26T16:42:49.145Z,6.07
2023-01-26T16:48:05.861Z,6.02
2023-01-26T16:53:20.326Z,5.80
2023-01-26T16:58:34.415Z,5.76
2023-01-26T17:03:37.466Z,5.86
2023-01-26T17:08:40.857Z,5.79
2023-01-26T17:13:48.013Z,5.76
2023-01-26T17:19:02.252Z,5.81
2023-01-26T17:24:14.483Z,5.82
2023-01-26T17:29:26.817Z,5.81
2023-01-26T17:34:36.338Z,5.72
2023-01-26T17:39:41.634Z,5.64
2023-01-26T17:44:58.233Z,5.61
2023-01-26T17:50:09.528Z,5.36
2023-01-26T17:55:18.029Z,5.25
2023-01-26T18:00:25.900Z,5.20
2023-01-26T18:05:29.404Z,5.21
2023-01-26T18:10:37.415Z,5.45
2023-01-26T18:15:56.553Z,5.55
2023-01-26T18:21:12.834Z,5.55
2023-01-26T18:26:30.452Z,5.52
2023-01-26T18:31:37.444Z,5.57
2023-01-26T18:36:48.672Z,5.54
2023-01-26T18:41:51.651Z,5.57
2023-01-26T18:46:59.272Z,5.52
2023-01-26T18:52:02.260Z,5.56
2023-01-26T18:57:07.518Z,5.57
2023-01-26T19:02:16.883Z,5.55
2023-01-26T19:07:24.941Z,5.54
2023-01-26T19:12:41.230Z,5.54
2023-01-26T19:17:50.099Z,5.54
2023-01-26T19:22:57.761Z,5.47
2023-01-26T19:28:10.245Z,5.48
2023-01-26T19:33:27.326Z,5.49
2023-01-26T19:38:30.475Z,5.47
2023-01-26T19:43:34.547Z,5.46
2023-01-26T19:48:52.138Z,5.45
2023-01-26T19:54:01.610Z,5.49
2023-01-26T19:59:15.294Z,5.45
2023-01-26T20:04:32.930Z,5.45
2023-01-26T20:09:40.700Z,5.41
2023-01-26T20:15:00.767Z,5.44
2023-01-26T20:20:18.609Z,5.39
2023-01-26T20:25:26.768Z,5.38
2023-01-26T20:30:44.388Z,5.42
2023-01-26T20:35:49.120Z,5.41
2023-01-26T20:40:53.167Z,5.36
2023-01-26T20:46:00.861Z,5.31
2023-01-26T20:51:18.812Z,5.28
2023-01-26T20:56:32.557Z,5.25
2023-01-26T21:01:39.019Z,5.20
2023-01-26T21:07:13.491Z,5.12
2023-01-26T21:12:22.333Z,5.00
2023-01-26T21:17:40.009Z,4.90
2023-01-26T21:22:49.109Z,4.72
2023-01-26T21:27:58.763Z,4.78
2023-01-26T21:33:06.950Z,4.76
2023-01-26T21:38:16.289Z,4.57
2023-01-26T21:43:30.757Z,4.37
2023-01-26T21:48:38.689Z,4.41
2023-01-26T21:53:43.897Z,4.41
2023-01-26T21:59:03.574Z,4.26
2023-01-26T22:04:40.720Z,4.07
2023-01-26T22:09:51.217Z,4.02
2023-01-26T22:14:55.413Z,3.94
2023-01-26T22:20:14.837Z,3.94
2023-01-26T22:25:20.327Z,3.93
2023-01-26T22:30:33.256Z,3.89
2023-01-26T22:35:46.004Z,3.95
2023-01-26T22:40:55.521Z,3.92
2023-01-26T22:46:12.315Z,3.95
2023-01-26T22:51:24.860Z,3.91
2023-01-26T22:56:46.877Z,4.03
2023-01-26T23:01:50.129Z,4.01
2023-01-26T23:06:59.295Z,4.02
2023-01-26T23:12:16.404Z,4.06
2023-01-26T23:17:22.745Z,4.12
2023-01-26T23:22:29.144Z,4.21
2023-01-26T23:27:38.374Z,4.30
2023-01-26T23:32:45.204Z,4.34
2023-01-26T23:37:52.942Z,4.37
2023-01-26T23:43:15.408Z,4.52
2023-01-26T23:48:26.140Z,4.61
2023-01-26T23:53:32.035Z,4.65
2023-01-26T23:58:41.984Z,4.66
